createdAt,value
2022-12-23T00:00:39.308Z,12.50
2022-12-23T00:03:06.646Z,12.50
2022-12-23T00:05:40.259Z,12.50
2022-12-23T00:08:07.879Z,12.50
2022-12-23T00:10:37.873Z,12.40
2022-12-23T00:13:23.150Z,12.40
2022-12-23T00:15:50.040Z,12.50
2022-12-23T00:18:17.002Z,12.50
2022-12-23T00:20:43.875Z,12.40
2022-12-23T00:23:10.808Z,12.40
2022-12-23T00:25:41.436Z,12.40
2022-12-23T00:28:11.793Z,12.40
2022-12-23T00:30:45.235Z,12.40
2022-12-23T00:33:12.106Z,12.40
2022-12-23T00:35:39.000Z,12.40
2022-12-23T00:38:05.922Z,12.40
2022-12-23T00:40:52.332Z,12.30
2022-12-23T00:43:19.278Z,12.30
2022-12-23T00:45:46.422Z,12.30
2022-12-23T00:48:31.736Z,12.30
2022-12-23T00:50:58.716Z,12.30
2022-12-23T00:53:25.612Z,12.30
2022-12-23T00:55:52.714Z,12.30
2022-12-23T00:58:20.733Z,12.30
2022-12-23T01:01:06.799Z,12.30
2022-12-23T01:03:52.113Z,12.30
2022-12-23T01:06:19.332Z,12.30
2022-12-23T01:08:46.319Z,12.30
2022-12-23T01:11:13.321Z,12.30
2022-12-23T01:13:40.330Z,12.30
2022-12-23T01:16:15.146Z,12.30
2022-12-23T01:18:44.408Z,12.30
2022-12-23T01:21:11.393Z,12.30
2022-12-23T01:23:38.500Z,12.30
2022-12-23T01:26:06.608Z,12.30
2022-12-23T01:28:33.787Z,12.30
2022-12-23T01:31:01.279Z,12.30
2022-12-23T01:33:28.442Z,12.30
2022-12-23T01:36:06.343Z,12.20
2022-12-23T01:38:33.894Z,12.20
2022-12-23T01:41:00.958Z,12.20
2022-12-23T01:43:46.650Z,12.20
2022-12-23T01:46:14.552Z,12.20
2022-12-23T01:48:43.332Z,12.30
2022-12-23T01:51:15.758Z,12.20
2022-12-23T01:53:48.722Z,12.20
2022-12-23T01:56:19.243Z,12.20
2022-12-23T01:58:48.722Z,12.20
2022-12-23T02:01:34.604Z,12.20
2022-12-23T02:04:04.505Z,12.10
2022-12-23T02:06:53.075Z,12.20
2022-12-23T02:09:24.758Z,12.20
2022-12-23T02:12:04.046Z,12.20
2022-12-23T02:15:08.822Z,12.20
2022-12-23T02:17:54.419Z,12.20
2022-12-23T02:20:33.361Z,12.10
2022-12-23T02:23:00.252Z,12.10
2022-12-23T02:25:33.074Z,12.00
2022-12-23T02:28:07.894Z,12.00
2022-12-23T02:30:45.800Z,12.00
2022-12-23T02:33:19.637Z,12.00
2022-12-23T02:36:19.183Z,12.00
2022-12-23T02:38:51.594Z,12.00
2022-12-23T02:41:18.374Z,12.00
2022-12-23T02:43:45.321Z,12.00
2022-12-23T02:46:27.749Z,12.00
2022-12-23T02:49:01.478Z,12.00
2022-12-23T02:51:31.290Z,11.90
2022-12-23T02:53:59.888Z,12.00
2022-12-23T02:56:28.132Z,12.00
2022-12-23T02:58:57.310Z,12.00
2022-12-23T03:01:26.581Z,12.00
2022-12-23T03:03:55.494Z,12.00
2022-12-23T03:06:25.081Z,11.90
2022-12-23T03:08:53.195Z,11.90
2022-12-23T03:11:20.158Z,12.00
2022-12-23T03:14:05.236Z,12.00
2022-12-23T03:16:32.066Z,12.00
2022-12-23T03:18:59.020Z,12.00
2022-12-23T03:21:44.023Z,11.90
2022-12-23T03:24:29.448Z,12.00
2022-12-23T03:26:56.329Z,11.90
2022-12-23T03:29:45.000Z,12.00
2022-12-23T03:32:13.262Z,11.90
2022-12-23T03:34:42.237Z,11.90
2022-12-23T03:37:10.331Z,11.90
2022-12-23T03:39:40.557Z,11.90
2022-12-23T03:42:27.755Z,11.90
2022-12-23T03:45:36.495Z,11.90
2022-12-23T03:47:45.476Z,11.90
2022-12-23T03:50:14.126Z,11.90
2022-12-23T03:52:43.974Z,11.90
2022-12-23T03:55:15.025Z,11.90
2022-12-23T03:57:45.087Z,11.80
2022-12-23T04:00:12.097Z,11.80
2022-12-23T04:02:42.240Z,11.80
2022-12-23T04:05:15.722Z,11.80
2022-12-23T04:08:16.007Z,11.80
2022-12-23T04:10:42.946Z,11.80
2022-12-23T04:13:09.828Z,11.80
2022-12-23T04:15:40.189Z,11.80
2022-12-23T04:18:08.321Z,11.70
2022-12-23T04:20:35.305Z,11.80
2022-12-23T04:23:02.711Z,11.80
2022-12-23T04:25:29.518Z,11.70
2022-12-23T04:27:56.396Z,11.70
2022-12-23T04:30:26.766Z,11.70
2022-12-23T04:32:58.313Z,11.70
2022-12-23T04:35:25.149Z,11.70
2022-12-23T04:37:52.041Z,11.70
2022-12-23T04:40:18.919Z,11.70
2022-12-23T04:42:45.800Z,11.70
2022-12-23T04:45:12.777Z,11.80
2022-12-23T04:47:40.909Z,11.70
2022-12-23T04:50:09.315Z,11.70
2022-12-23T04:52:36.213Z,11.70
2022-12-23T04:55:03.032Z,11.80
2022-12-23T04:57:29.972Z,11.70
2022-12-23T04:59:56.817Z,11.70
2022-12-23T05:02:23.898Z,11.80
2022-12-23T05:04:50.896Z,11.70
2022-12-23T05:07:17.785Z,11.70
2022-12-23T05:09:44.607Z,11.70
2022-12-23T05:12:11.470Z,11.70
2022-12-23T05:14:38.369Z,11.70
2022-12-23T05:17:07.963Z,11.70
2022-12-23T05:19:35.127Z,11.70
2022-12-23T05:22:02.055Z,11.70
2022-12-23T05:24:29.000Z,11.70
2022-12-23T05:27:00.152Z,11.70
2022-12-23T05:29:27.551Z,11.70
2022-12-23T05:31:54.452Z,11.70
2022-12-23T05:34:21.411Z,11.70
2022-12-23T05:36:48.340Z,11.70
2022-12-23T05:39:15.225Z,11.70
2022-12-23T05:41:42.118Z,11.70
2022-12-23T05:44:08.998Z,11.70
2022-12-23T05:46:36.133Z,11.70
2022-12-23T05:49:03.091Z,11.70
2022-12-23T05:51:29.907Z,11.70
2022-12-23T05:53:56.712Z,11.70
2022-12-23T05:56:23.664Z,11.70
2022-12-23T05:58:50.543Z,11.70
2022-12-23T06:01:17.386Z,11.70
2022-12-23T06:03:44.427Z,11.70
2022-12-23T06:06:11.396Z,11.70
2022-12-23T06:08:38.333Z,11.70
2022-12-23T06:11:05.715Z,11.70
2022-12-23T06:13:32.514Z,11.70
2022-12-23T06:15:59.393Z,11.60
2022-12-23T06:18:26.192Z,11.70
2022-12-23T06:20:53.136Z,11.70
2022-12-23T06:23:19.983Z,11.60
2022-12-23T06:25:46.837Z,11.70
2022-12-23T06:28:13.745Z,11.70
2022-12-23T06:30:40.596Z,11.60
2022-12-23T06:33:07.397Z,11.70
2022-12-23T06:35:34.307Z,11.70
2022-12-23T06:38:01.139Z,11.70
2022-12-23T06:40:29.390Z,11.70
2022-12-23T06:42:56.354Z,11.60
2022-12-23T06:45:23.455Z,11.60
2022-12-23T06:47:50.346Z,11.60
2022-12-23T06:50:17.192Z,11.60
2022-12-23T06:52:45.578Z,11.60
2022-12-23T06:55:12.756Z,11.60
2022-12-23T06:57:39.663Z,11.60
2022-12-23T07:00:06.999Z,11.60
2022-12-23T07:02:34.203Z,11.60
2022-12-23T07:05:01.028Z,11.60
2022-12-23T07:07:27.938Z,11.60
2022-12-23T07:09:54.804Z,11.60
2022-12-23T07:12:21.693Z,11.60
2022-12-23T07:14:48.523Z,11.50
2022-12-23T07:17:15.322Z,11.50
2022-12-23T07:19:42.193Z,11.50
2022-12-23T07:22:10.516Z,11.50
2022-12-23T07:24:37.891Z,11.50
2022-12-23T07:27:05.121Z,11.50
2022-12-23T07:29:32.017Z,11.60
2022-12-23T07:31:59.056Z,11.50
2022-12-23T07:34:25.968Z,11.60
2022-12-23T07:36:52.853Z,11.60
2022-12-23T07:39:19.914Z,11.50
2022-12-23T07:41:46.755Z,11.50
2022-12-23T07:44:13.784Z,11.50
2022-12-23T07:46:40.776Z,11.50
2022-12-23T07:49:08.053Z,11.60
2022-12-23T07:51:34.971Z,11.50
2022-12-23T07:54:01.831Z,11.50
2022-12-23T07:56:28.821Z,11.50
2022-12-23T07:58:55.663Z,11.50
2022-12-23T08:01:22.844Z,11.50
2022-12-23T08:03:49.774Z,11.50
2022-12-23T08:06:16.772Z,11.40
2022-12-23T08:08:45.592Z,11.40
2022-12-23T08:11:13.246Z,11.50
2022-12-23T08:13:41.102Z,11.50
2022-12-23T08:16:08.679Z,11.50
2022-12-23T08:18:37.370Z,11.50
2022-12-23T08:21:05.792Z,11.50
2022-12-23T08:23:33.401Z,11.40
2022-12-23T08:26:00.590Z,11.50
2022-12-23T08:28:27.713Z,11.40
2022-12-23T08:30:54.680Z,11.40
2022-12-23T08:33:21.865Z,11.40
2022-12-23T08:35:48.822Z,11.40
2022-12-23T08:38:15.707Z,11.40
2022-12-23T08:40:42.660Z,11.40
2022-12-23T08:43:09.547Z,11.40
2022-12-23T08:45:37.083Z,11.30
2022-12-23T08:48:04.626Z,11.30
2022-12-23T08:50:31.501Z,11.30
2022-12-23T08:52:58.350Z,11.30
2022-12-23T08:55:25.354Z,11.20
2022-12-23T08:57:52.197Z,11.20
2022-12-23T09:00:19.094Z,11.20
2022-12-23T09:02:46.207Z,11.20
2022-12-23T09:05:13.345Z,11.10
2022-12-23T09:07:40.258Z,11.10
2022-12-23T09:10:07.550Z,11.10
2022-12-23T09:12:34.454Z,11.10
2022-12-23T09:15:01.374Z,11.10
2022-12-23T09:17:28.477Z,11.10
2022-12-23T09:19:55.355Z,11.00
2022-12-23T09:22:22.376Z,11.10
2022-12-23T09:24:49.237Z,11.10
2022-12-23T09:27:16.066Z,11.20
2022-12-23T09:29:43.619Z,11.20
2022-12-23T09:32:10.486Z,11.20
2022-12-23T09:34:37.393Z,11.30
2022-12-23T09:37:04.277Z,11.30
2022-12-23T09:39:31.248Z,11.30
2022-12-23T09:42:16.890Z,11.30
2022-12-23T09:44:50.027Z,11.30
2022-12-23T09:47:19.684Z,11.30
2022-12-23T09:49:51.945Z,11.30
2022-12-23T09:52:25.272Z,11.30
2022-12-23T09:54:53.485Z,11.30
2022-12-23T09:57:23.157Z,11.30
2022-12-23T10:00:08.665Z,11.20
2022-12-23T10:02:42.636Z,11.20
2022-12-23T10:05:09.760Z,11.20
2022-12-23T10:07:43.067Z,11.30
2022-12-23T10:10:39.568Z,11.30
2022-12-23T10:13:07.372Z,11.20
2022-12-23T10:15:37.440Z,11.20
2022-12-23T10:18:08.567Z,11.30
2022-12-23T10:20:39.548Z,11.30
2022-12-23T10:23:11.665Z,11.30
2022-12-23T10:25:41.498Z,11.30
2022-12-23T10:28:09.807Z,11.30
2022-12-23T10:31:05.806Z,11.30
2022-12-23T10:33:36.780Z,11.30
2022-12-23T10:36:23.935Z,11.30
2022-12-23T10:38:50.859Z,11.30
2022-12-23T10:41:25.327Z,11.30
2022-12-23T10:44:04.124Z,11.30
2022-12-23T10:46:42.998Z,11.30
2022-12-23T10:49:20.439Z,11.30
2022-12-23T10:51:52.666Z,11.30
2022-12-23T10:54:23.487Z,11.30
2022-12-23T10:56:50.338Z,11.30
2022-12-23T10:59:27.456Z,11.30
2022-12-23T11:02:20.572Z,11.30
2022-12-23T11:04:48.666Z,11.30
2022-12-23T11:10:13.352Z,11.30
2022-12-23T11:12:42.965Z,11.40
2022-12-23T11:15:29.919Z,11.40
2022-12-23T11:18:01.427Z,11.40
2022-12-23T11:20:28.374Z,11.30
2022-12-23T11:22:58.500Z,11.30
2022-12-23T11:25:30.182Z,11.40
2022-12-23T11:27:59.278Z,11.40
2022-12-23T11:30:27.053Z,11.40
2022-12-23T11:32:53.980Z,11.40
2022-12-23T11:35:25.293Z,11.40
2022-12-23T11:37:52.238Z,11.40
2022-12-23T11:40:28.530Z,11.40
2022-12-23T11:43:01.100Z,11.40
2022-12-23T11:45:29.600Z,11.50
2022-12-23T11:47:56.581Z,11.50
2022-12-23T11:50:32.586Z,11.50
2022-12-23T11:53:22.859Z,11.40
2022-12-23T11:56:10.191Z,11.40
2022-12-23T11:58:48.398Z,11.40
2022-12-23T12:01:17.481Z,11.40
2022-12-23T12:03:50.582Z,11.40
2022-12-23T12:06:19.783Z,11.40
2022-12-23T12:08:48.549Z,11.40
2022-12-23T12:11:18.165Z,11.40
2022-12-23T12:13:48.113Z,11.40
2022-12-23T12:16:30.342Z,11.40
2022-12-23T12:19:17.491Z,11.40
2022-12-23T12:21:44.942Z,11.40
2022-12-23T12:24:19.158Z,11.40
2022-12-23T12:26:51.468Z,11.40
2022-12-23T12:29:19.442Z,11.40
2022-12-23T12:31:48.670Z,11.40
2022-12-23T12:34:24.760Z,11.40
2022-12-23T12:37:03.970Z,11.40
2022-12-23T12:39:34.212Z,11.40
2022-12-23T12:42:10.291Z,11.40
2022-12-23T12:44:40.493Z,11.40
2022-12-23T12:47:36.108Z,11.50
2022-12-23T12:50:01.011Z,11.50
2022-12-23T12:52:28.349Z,11.50
2022-12-23T12:54:55.199Z,11.50
2022-12-23T12:57:23.061Z,11.50
2022-12-23T12:59:51.460Z,11.50
2022-12-23T13:02:18.321Z,11.50
2022-12-23T13:04:55.738Z,11.50
2022-12-23T13:07:28.115Z,11.60
2022-12-23T13:09:58.167Z,11.60
2022-12-23T13:12:43.752Z,11.70
2022-12-23T13:15:10.623Z,11.70
2022-12-23T13:17:37.544Z,11.70
2022-12-23T13:20:20.836Z,11.80
2022-12-23T13:22:50.224Z,11.80
2022-12-23T13:25:22.763Z,11.90
2022-12-23T13:27:52.949Z,12.00
2022-12-23T13:30:23.910Z,12.10
2022-12-23T13:33:09.368Z,12.10
2022-12-23T13:35:36.283Z,12.20
2022-12-23T13:38:20.028Z,12.20
2022-12-23T13:41:02.186Z,12.30
2022-12-23T13:43:49.272Z,12.30
2022-12-23T13:46:22.404Z,12.50
2022-12-23T13:48:56.121Z,12.60
2022-12-23T13:51:55.225Z,12.60
2022-12-23T13:54:22.087Z,12.80
2022-12-23T13:56:53.081Z,12.90
2022-12-23T13:59:19.964Z,13.00
2022-12-23T14:01:48.847Z,13.10
2022-12-23T14:04:34.230Z,13.10
2022-12-23T14:07:05.823Z,13.30
2022-12-23T14:09:35.559Z,13.30
2022-12-23T14:12:10.244Z,13.40
2022-12-23T14:14:38.545Z,13.40
2022-12-23T14:17:13.787Z,13.40
2022-12-23T14:19:42.520Z,13.50
2022-12-23T14:22:20.165Z,13.50
2022-12-23T14:24:50.094Z,13.60
2022-12-23T14:27:19.728Z,13.60
2022-12-23T14:30:01.413Z,13.60
2022-12-23T14:32:37.503Z,13.70
2022-12-23T14:35:24.627Z,13.70
2022-12-23T14:38:10.720Z,13.80
2022-12-23T14:40:37.574Z,13.70
2022-12-23T14:43:23.219Z,13.80
2022-12-23T14:45:51.554Z,13.70
2022-12-23T14:48:33.877Z,13.80
2022-12-23T14:51:20.718Z,13.80
2022-12-23T14:54:00.168Z,13.80
2022-12-23T14:56:39.740Z,13.70
2022-12-23T14:59:06.572Z,13.70
2022-12-23T15:01:39.548Z,13.70
2022-12-23T15:04:12.430Z,13.70
2022-12-23T15:06:41.056Z,13.70
2022-12-23T15:09:08.749Z,13.70
2022-12-23T15:11:36.302Z,13.70
2022-12-23T15:14:05.025Z,13.80
2022-12-23T15:16:33.638Z,13.80
2022-12-23T15:19:02.606Z,13.70
2022-12-23T15:21:33.569Z,13.70
2022-12-23T15:24:00.749Z,13.70
2022-12-23T15:26:29.104Z,13.70
2022-12-23T15:28:56.222Z,13.60
2022-12-23T15:31:27.993Z,13.60
2022-12-23T15:34:04.573Z,13.60
2022-12-23T15:36:37.080Z,13.60
2022-12-23T15:39:09.141Z,13.60
2022-12-23T15:41:43.708Z,13.60
2022-12-23T15:44:15.677Z,13.60
2022-12-23T15:46:42.643Z,13.60
2022-12-23T15:49:12.291Z,13.60
2022-12-23T15:52:07.843Z,13.60
2022-12-23T15:54:40.601Z,13.60
2022-12-23T15:57:07.498Z,13.60
2022-12-23T15:59:38.656Z,13.50
2022-12-23T16:02:58.402Z,13.50
2022-12-23T16:05:06.107Z,13.50
2022-12-23T16:07:38.409Z,13.50
2022-12-23T16:10:13.701Z,13.40
2022-12-23T16:12:41.361Z,13.40
2022-12-23T16:15:20.709Z,13.40
2022-12-23T16:17:47.549Z,13.50
2022-12-23T16:20:14.381Z,13.40
2022-12-23T16:22:41.398Z,13.50
2022-12-23T16:25:08.503Z,13.50
2022-12-23T16:27:43.843Z,13.50
2022-12-23T16:30:18.006Z,13.40
2022-12-23T16:32:52.939Z,13.40
2022-12-23T16:35:24.159Z,13.40
2022-12-23T16:37:51.522Z,13.40
2022-12-23T16:40:19.678Z,13.40
2022-12-23T16:42:46.546Z,13.40
2022-12-23T16:45:13.910Z,13.30
2022-12-23T16:47:42.107Z,13.30
2022-12-23T16:50:16.439Z,13.30
2022-12-23T16:56:15.239Z,13.20
2022-12-23T16:58:42.295Z,13.30
2022-12-23T17:01:26.655Z,13.20
2022-12-23T17:03:54.470Z,13.20
2022-12-23T17:06:21.832Z,13.20
2022-12-23T17:08:48.926Z,13.20
2022-12-23T17:11:16.866Z,13.20
2022-12-23T17:13:44.138Z,13.20
2022-12-23T17:16:15.663Z,13.20
2022-12-23T17:18:42.603Z,13.20
2022-12-23T17:21:30.259Z,13.30
2022-12-23T17:24:15.896Z,13.20
2022-12-23T17:26:42.851Z,13.20
2022-12-23T17:29:11.527Z,13.20
2022-12-23T17:31:38.595Z,13.20
2022-12-23T17:34:11.856Z,13.20
2022-12-23T17:36:41.910Z,13.20
2022-12-23T17:39:11.393Z,13.20
2022-12-23T17:41:39.558Z,13.10
2022-12-23T17:44:06.845Z,13.20
2022-12-23T17:46:33.973Z,13.20
2022-12-23T17:49:00.953Z,13.20
2022-12-23T17:51:28.100Z,13.20
2022-12-23T17:53:57.809Z,13.10
2022-12-23T17:56:26.611Z,13.10
2022-12-23T17:58:53.820Z,13.00
2022-12-23T18:01:25.332Z,13.20
2022-12-23T18:03:52.604Z,13.10
2022-12-23T18:06:20.426Z,13.10
2022-12-23T18:08:48.143Z,13.10
2022-12-23T18:11:23.332Z,13.00
2022-12-23T18:13:52.472Z,13.10
2022-12-23T18:16:19.672Z,13.00
2022-12-23T18:18:47.242Z,13.00
2022-12-23T18:21:17.295Z,13.00
2022-12-23T18:23:44.164Z,13.00
2022-12-23T18:26:15.268Z,13.00
2022-12-23T18:28:43.056Z,13.00
2022-12-23T18:31:27.799Z,13.00
2022-12-23T18:33:54.831Z,12.90
2022-12-23T18:36:25.750Z,12.90
2022-12-23T18:38:53.062Z,12.90
2022-12-23T18:41:20.666Z,12.90
2022-12-23T18:43:47.881Z,12.90
2022-12-23T18:46:20.676Z,12.90
2022-12-23T18:48:47.799Z,12.90
2022-12-23T18:51:16.587Z,12.80
2022-12-23T18:53:43.760Z,12.80
2022-12-23T18:56:14.249Z,12.90
2022-12-23T18:58:41.292Z,12.90
2022-12-23T19:01:14.997Z,12.80
2022-12-23T19:03:42.464Z,12.80
2022-12-23T19:06:10.221Z,12.70
2022-12-23T19:08:38.186Z,12.80
2022-12-23T19:11:11.916Z,12.80
2022-12-23T19:13:38.931Z,12.70
2022-12-23T19:16:06.106Z,12.70
2022-12-23T19:18:33.064Z,12.70
2022-12-23T19:21:03.471Z,12.80
2022-12-23T19:23:30.436Z,12.80
2022-12-23T19:25:57.373Z,12.80
2022-12-23T19:28:24.287Z,12.70
2022-12-23T19:30:51.526Z,12.80
2022-12-23T19:33:18.578Z,12.70
2022-12-23T19:35:45.536Z,12.70
2022-12-23T19:38:12.653Z,12.70
2022-12-23T19:40:40.062Z,12.70
2022-12-23T19:43:07.286Z,12.70
2022-12-23T19:45:34.179Z,12.60
2022-12-23T19:48:01.069Z,12.70
2022-12-23T19:50:28.066Z,12.70
2022-12-23T19:52:56.526Z,12.70
2022-12-23T19:55:23.702Z,12.60
2022-12-23T19:57:50.900Z,12.60
2022-12-23T20:00:17.886Z,12.60
2022-12-23T20:02:44.823Z,12.60
2022-12-23T20:05:12.035Z,12.60
2022-12-23T20:07:38.998Z,12.60
2022-12-23T20:10:06.236Z,12.60
2022-12-23T20:12:33.288Z,12.70
2022-12-23T20:15:00.414Z,12.70
2022-12-23T20:17:27.375Z,12.70
2022-12-23T20:19:54.235Z,12.70
2022-12-23T20:22:21.177Z,12.70
2022-12-23T20:24:48.102Z,12.70
2022-12-23T20:27:16.256Z,12.70
2022-12-23T20:29:43.882Z,12.70
2022-12-23T20:32:11.890Z,12.80
2022-12-23T20:34:40.270Z,12.70
2022-12-23T20:37:07.900Z,12.70
2022-12-23T20:39:35.160Z,12.70
2022-12-23T20:42:02.247Z,12.70
2022-12-23T20:44:37.521Z,12.70
2022-12-23T20:47:05.253Z,12.80
2022-12-23T20:49:32.348Z,12.70
2022-12-23T20:51:59.409Z,12.70
2022-12-23T20:54:32.223Z,12.70
2022-12-23T20:56:59.993Z,12.70
2022-12-23T20:59:26.874Z,12.70
2022-12-23T21:01:53.853Z,12.70
2022-12-23T21:04:21.024Z,12.70
2022-12-23T21:06:47.933Z,12.70
2022-12-23T21:09:15.746Z,12.70
2022-12-23T21:11:43.913Z,12.70
2022-12-23T21:14:11.026Z,12.70
2022-12-23T21:16:38.424Z,12.70
2022-12-23T21:19:09.359Z,12.70
2022-12-23T21:21:36.276Z,12.70
2022-12-23T21:24:04.953Z,12.70
2022-12-23T21:26:32.878Z,12.70
2022-12-23T21:29:00.628Z,12.70
2022-12-23T21:31:28.435Z,12.70
2022-12-23T21:33:55.935Z,12.70
2022-12-23T21:36:23.977Z,12.70
2022-12-23T21:38:51.414Z,12.80
2022-12-23T21:41:22.452Z,12.70
2022-12-23T21:43:50.052Z,12.70
2022-12-23T21:46:18.526Z,12.70
2022-12-23T21:48:45.926Z,12.70
2022-12-23T21:51:18.888Z,12.60
2022-12-23T21:53:47.256Z,12.60
2022-12-23T21:56:15.257Z,12.60
2022-12-23T21:58:42.528Z,12.60
2022-12-23T22:01:10.747Z,12.60
2022-12-23T22:03:37.994Z,12.50
2022-12-23T22:06:10.662Z,12.50
2022-12-23T22:08:38.632Z,12.50
2022-12-23T22:11:09.400Z,12.50
2022-12-23T22:13:36.627Z,12.50
2022-12-23T22:16:04.034Z,12.40
2022-12-23T22:18:31.682Z,12.40
2022-12-23T22:20:58.546Z,12.30
2022-12-23T22:23:25.426Z,12.30
2022-12-23T22:25:53.446Z,12.30
2022-12-23T22:28:20.266Z,12.30
2022-12-23T22:30:47.284Z,12.20
2022-12-23T22:33:14.222Z,12.20
2022-12-23T22:35:41.176Z,12.20
2022-12-23T22:38:09.057Z,12.20
2022-12-23T22:40:35.887Z,12.20
2022-12-23T22:43:02.739Z,12.20
2022-12-23T22:45:29.726Z,12.10
2022-12-23T22:47:56.821Z,12.20
2022-12-23T22:50:23.766Z,12.10
2022-12-23T22:52:50.710Z,12.10
2022-12-23T22:55:17.582Z,12.10
2022-12-23T22:57:44.424Z,12.10
2022-12-23T23:00:12.883Z,12.10
2022-12-23T23:02:39.846Z,12.10
2022-12-23T23:05:12.638Z,12.20
2022-12-23T23:07:40.077Z,12.20
2022-12-23T23:10:07.458Z,12.10
2022-12-23T23:12:34.386Z,12.10
2022-12-23T23:15:01.324Z,12.10
2022-12-23T23:17:28.554Z,12.10
2022-12-23T23:19:55.514Z,12.10
2022-12-23T23:22:23.976Z,12.10
2022-12-23T23:24:51.377Z,12.10
2022-12-23T23:27:18.294Z,12.10
2022-12-23T23:29:45.226Z,12.10
2022-12-23T23:32:12.358Z,12.10
2022-12-23T23:34:40.742Z,12.10
2022-12-23T23:37:07.740Z,12.10
2022-12-23T23:39:34.639Z,12.10
2022-12-23T23:42:01.583Z,12.10
2022-12-23T23:44:28.428Z,12.10
2022-12-23T23:46:55.461Z,12.10
2022-12-23T23:49:23.319Z,12.00
2022-12-23T23:51:50.512Z,12.00
2022-12-23T23:54:17.698Z,12.00
2022-12-23T23:56:44.592Z,12.00
2022-12-23T23:59:11.578Z,12.00
